sensor_id;sensor_type;location;lat;lon;timestamp;temperature;humidity
43647;DHT22;56152;49.996;18.980;2022-11-14T00:10:09;4.40;98.50
43647;DHT22;56152;49.996;18.980;2022-11-14T00:15:22;4.40;98.60
43647;DHT22;56152;49.996;18.980;2022-11-14T00:20:26;4.40;98.60
43647;DHT22;56152;49.996;18.980;2022-11-14T00:25:31;4.40;98.50
43647;DHT22;56152;49.996;18.980;2022-11-14T00:30:33;4.30;98.50
43647;DHT22;56152;49.996;18.980;2022-11-14T00:35:55;4.40;98.60
43647;DHT22;56152;49.996;18.980;2022-11-14T00:41:01;4.40;98.60
43647;DHT22;56152;49.996;18.980;2022-11-14T00:46:02;4.30;98.60
43647;DHT22;56152;49.996;18.980;2022-11-14T00:51:07;4.30;98.70
43647;DHT22;56152;49.996;18.980;2022-11-14T00:56:12;4.30;98.70
43647;DHT22;56152;49.996;18.980;2022-11-14T01:01:33;4.30;98.70
43647;DHT22;56152;49.996;18.980;2022-11-14T01:06:35;4.30;98.70
43647;DHT22;56152;49.996;18.980;2022-11-14T01:11:42;4.30;98.70
43647;DHT22;56152;49.996;18.980;2022-11-14T01:16:45;4.30;98.70
43647;DHT22;56152;49.996;18.980;2022-11-14T01:21:51;4.40;98.80
43647;DHT22;56152;49.996;18.980;2022-11-14T01:26:55;4.40;98.70
43647;DHT22;56152;49.996;18.980;2022-11-14T01:31:58;4.40;98.70
43647;DHT22;56152;49.996;18.980;2022-11-14T01:37:21;4.30;98.70
43647;DHT22;56152;49.996;18.980;2022-11-14T01:42:29;4.30;98.70
43647;DHT22;56152;49.996;18.980;2022-11-14T01:47:42;4.30;98.70
43647;DHT22;56152;49.996;18.980;2022-11-14T01:52:44;4.30;98.70
43647;DHT22;56152;49.996;18.980;2022-11-14T01:57:52;4.30;98.70
43647;DHT22;56152;49.996;18.980;2022-11-14T02:02:55;4.20;98.70
43647;DHT22;56152;49.996;18.980;2022-11-14T02:08:11;4.20;98.70
43647;DHT22;56152;49.996;18.980;2022-11-14T02:13:15;4.20;98.80
43647;DHT22;56152;49.996;18.980;2022-11-14T02:18:33;4.30;98.80
43647;DHT22;56152;49.996;18.980;2022-11-14T02:23:36;4.30;98.80
43647;DHT22;56152;49.996;18.980;2022-11-14T02:28:45;4.30;98.80
43647;DHT22;56152;49.996;18.980;2022-11-14T02:33:48;4.30;98.80
43647;DHT22;56152;49.996;18.980;2022-11-14T02:38:52;4.30;98.70
43647;DHT22;56152;49.996;18.980;2022-11-14T02:49:52;4.10;98.80
43647;DHT22;56152;49.996;18.980;2022-11-14T02:54:58;4.00;98.90
43647;DHT22;56152;49.996;18.980;2022-11-14T03:00:00;4.00;98.90
43647;DHT22;56152;49.996;18.980;2022-11-14T03:05:04;3.90;99.20
43647;DHT22;56152;49.996;18.980;2022-11-14T03:10:08;3.90;98.90
43647;DHT22;56152;49.996;18.980;2022-11-14T03:15:11;3.90;99.00
43647;DHT22;56152;49.996;18.980;2022-11-14T03:20:13;3.90;99.00
43647;DHT22;56152;49.996;18.980;2022-11-14T03:25:33;4.00;99.10
43647;DHT22;56152;49.996;18.980;2022-11-14T03:30:35;4.00;99.00
43647;DHT22;56152;49.996;18.980;2022-11-14T03:35:44;4.10;99.00
43647;DHT22;56152;49.996;18.980;2022-11-14T03:40:47;4.10;99.00
43647;DHT22;56152;49.996;18.980;2022-11-14T03:46:02;4.10;98.90
43647;DHT22;56152;49.996;18.980;2022-11-14T03:51:04;4.10;98.90
43647;DHT22;56152;49.996;18.980;2022-11-14T03:56:26;4.10;98.90
43647;DHT22;56152;49.996;18.980;2022-11-14T04:01:28;4.10;98.90
43647;DHT22;56152;49.996;18.980;2022-11-14T04:07:00;4.10;98.90
43647;DHT22;56152;49.996;18.980;2022-11-14T04:12:05;4.10;98.90
43647;DHT22;56152;49.996;18.980;2022-11-14T04:22:56;4.00;99.00
43647;DHT22;56152;49.996;18.980;2022-11-14T04:28:14;4.00;99.00
43647;DHT22;56152;49.996;18.980;2022-11-14T04:33:18;4.00;99.00
43647;DHT22;56152;49.996;18.980;2022-11-14T04:38:20;4.00;99.00
43647;DHT22;56152;49.996;18.980;2022-11-14T04:43:38;4.00;99.00
43647;DHT22;56152;49.996;18.980;2022-11-14T04:48:40;4.00;99.00
43647;DHT22;56152;49.996;18.980;2022-11-14T04:53:43;3.90;99.00
43647;DHT22;56152;49.996;18.980;2022-11-14T04:58:48;3.90;99.30
43647;DHT22;56152;49.996;18.980;2022-11-14T05:03:50;3.80;99.00
43647;DHT22;56152;49.996;18.980;2022-11-14T05:09:02;3.80;99.00
43647;DHT22;56152;49.996;18.980;2022-11-14T05:14:06;3.80;99.10
43647;DHT22;56152;49.996;18.980;2022-11-14T05:19:08;3.80;99.10
43647;DHT22;56152;49.996;18.980;2022-11-14T05:24:17;3.80;99.10
43647;DHT22;56152;49.996;18.980;2022-11-14T05:29:24;3.80;99.10
43647;DHT22;56152;49.996;18.980;2022-11-14T05:34:27;3.80;99.10
43647;DHT22;56152;49.996;18.980;2022-11-14T05:39:29;3.90;99.10
43647;DHT22;56152;49.996;18.980;2022-11-14T05:44:32;3.90;99.10
43647;DHT22;56152;49.996;18.980;2022-11-14T05:49:35;3.90;99.10
43647;DHT22;56152;49.996;18.980;2022-11-14T05:54:40;3.90;99.10
43647;DHT22;56152;49.996;18.980;2022-11-14T05:59:45;4.00;99.10
43647;DHT22;56152;49.996;18.980;2022-11-14T06:04:47;3.90;99.10
43647;DHT22;56152;49.996;18.980;2022-11-14T06:09:49;3.90;99.10
43647;DHT22;56152;49.996;18.980;2022-11-14T06:14:54;3.90;99.10
43647;DHT22;56152;49.996;18.980;2022-11-14T06:19:56;4.00;99.10
43647;DHT22;56152;49.996;18.980;2022-11-14T06:25:02;4.00;99.00
43647;DHT22;56152;49.996;18.980;2022-11-14T06:30:07;3.90;99.00
43647;DHT22;56152;49.996;18.980;2022-11-14T06:35:11;4.00;99.10
43647;DHT22;56152;49.996;18.980;2022-11-14T06:40:15;3.90;99.00
43647;DHT22;56152;49.996;18.980;2022-11-14T06:45:21;3.90;99.10
43647;DHT22;56152;49.996;18.980;2022-11-14T06:50:23;3.80;99.00
43647;DHT22;56152;49.996;18.980;2022-11-14T06:55:25;3.80;99.10
43647;DHT22;56152;49.996;18.980;2022-11-14T07:00:28;3.80;99.10
43647;DHT22;56152;49.996;18.980;2022-11-14T07:05:32;3.80;99.10
43647;DHT22;56152;49.996;18.980;2022-11-14T07:10:36;3.80;99.10
43647;DHT22;56152;49.996;18.980;2022-11-14T07:15:48;3.80;99.10
43647;DHT22;56152;49.996;18.980;2022-11-14T07:20:56;3.80;99.20
43647;DHT22;56152;49.996;18.980;2022-11-14T07:26:00;3.80;99.20
43647;DHT22;56152;49.996;18.980;2022-11-14T07:31:06;3.90;99.20
43647;DHT22;56152;49.996;18.980;2022-11-14T07:36:10;3.90;99.20
43647;DHT22;56152;49.996;18.980;2022-11-14T07:41:15;3.90;99.10
43647;DHT22;56152;49.996;18.980;2022-11-14T07:46:18;3.90;99.20
43647;DHT22;56152;49.996;18.980;2022-11-14T07:51:21;3.90;99.20
43647;DHT22;56152;49.996;18.980;2022-11-14T07:56:23;3.90;99.20
43647;DHT22;56152;49.996;18.980;2022-11-14T08:01:30;3.80;99.20
43647;DHT22;56152;49.996;18.980;2022-11-14T08:06:31;3.90;99.30
43647;DHT22;56152;49.996;18.980;2022-11-14T08:11:33;4.00;99.30
43647;DHT22;56152;49.996;18.980;2022-11-14T08:16:53;4.10;99.30
43647;DHT22;56152;49.996;18.980;2022-11-14T08:21:55;4.10;99.20
43647;DHT22;56152;49.996;18.980;2022-11-14T08:27:00;4.20;99.20
43647;DHT22;56152;49.996;18.980;2022-11-14T08:32:05;4.10;99.10
43647;DHT22;56152;49.996;18.980;2022-11-14T08:37:10;4.20;99.20
43647;DHT22;56152;49.996;18.980;2022-11-14T08:42:12;4.20;99.10
43647;DHT22;56152;49.996;18.980;2022-11-14T08:47:15;4.20;99.10
43647;DHT22;56152;49.996;18.980;2022-11-14T08:52:17;4.40;99.20
43647;DHT22;56152;49.996;18.980;2022-11-14T08:57:19;4.40;99.00
43647;DHT22;56152;49.996;18.980;2022-11-14T09:02:22;4.50;99.10
43647;DHT22;56152;49.996;18.980;2022-11-14T09:07:24;4.60;99.10
43647;DHT22;56152;49.996;18.980;2022-11-14T09:12:26;4.70;99.10
43647;DHT22;56152;49.996;18.980;2022-11-14T09:17:29;4.80;99.10
43647;DHT22;56152;49.996;18.980;2022-11-14T09:22:34;4.90;99.00
43647;DHT22;56152;49.996;18.980;2022-11-14T09:27:36;4.90;99.00
43647;DHT22;56152;49.996;18.980;2022-11-14T09:32:41;5.00;99.00
43647;DHT22;56152;49.996;18.980;2022-11-14T09:37:43;5.00;98.90
43647;DHT22;56152;49.996;18.980;2022-11-14T09:42:58;4.90;98.90
43647;DHT22;56152;49.996;18.980;2022-11-14T09:48:05;5.00;99.10
43647;DHT22;56152;49.996;18.980;2022-11-14T09:53:15;5.10;99.10
43647;DHT22;56152;49.996;18.980;2022-11-14T09:58:21;5.20;99.00
43647;DHT22;56152;49.996;18.980;2022-11-14T10:03:32;5.30;99.10
43647;DHT22;56152;49.996;18.980;2022-11-14T10:08:46;5.40;99.00
43647;DHT22;56152;49.996;18.980;2022-11-14T10:19:24;5.30;98.90
43647;DHT22;56152;49.996;18.980;2022-11-14T10:24:50;5.40;99.00
43647;DHT22;56152;49.996;18.980;2022-11-14T10:30:07;5.50;99.00
43647;DHT22;56152;49.996;18.980;2022-11-14T10:35:13;5.70;98.90
43647;DHT22;56152;49.996;18.980;2022-11-14T10:40:21;5.80;98.80
43647;DHT22;56152;49.996;18.980;2022-11-14T10:45:26;5.90;98.70
43647;DHT22;56152;49.996;18.980;2022-11-14T10:50:39;6.00;98.70
43647;DHT22;56152;49.996;18.980;2022-11-14T10:55:43;6.10;98.70
43647;DHT22;56152;49.996;18.980;2022-11-14T11:00:47;6.10;98.60
43647;DHT22;56152;49.996;18.980;2022-11-14T11:05:54;6.20;98.60
43647;DHT22;56152;49.996;18.980;2022-11-14T11:10:58;6.30;98.60
43647;DHT22;56152;49.996;18.980;2022-11-14T11:16:20;6.40;98.60
43647;DHT22;56152;49.996;18.980;2022-11-14T11:21:47;6.50;98.40
43647;DHT22;56152;49.996;18.980;2022-11-14T11:32:29;6.30;98.40
43647;DHT22;56152;49.996;18.980;2022-11-14T11:37:36;6.40;98.40
43647;DHT22;56152;49.996;18.980;2022-11-14T11:42:44;6.50;98.40
43647;DHT22;56152;49.996;18.980;2022-11-14T11:47:53;6.60;98.30
43647;DHT22;56152;49.996;18.980;2022-11-14T11:53:13;6.70;98.20
43647;DHT22;56152;49.996;18.980;2022-11-14T11:58:20;6.70;98.00
43647;DHT22;56152;49.996;18.980;2022-11-14T12:03:24;6.70;98.10
43647;DHT22;56152;49.996;18.980;2022-11-14T12:08:35;6.80;98.40
43647;DHT22;56152;49.996;18.980;2022-11-14T12:14:05;6.80;98.00
43647;DHT22;56152;49.996;18.980;2022-11-14T12:25:02;7.00;98.00
43647;DHT22;56152;49.996;18.980;2022-11-14T12:30:13;6.90;97.80
43647;DHT22;56152;49.996;18.980;2022-11-14T12:35:20;6.80;97.90
43647;DHT22;56152;49.996;18.980;2022-11-14T12:40:29;6.80;98.00
43647;DHT22;56152;49.996;18.980;2022-11-14T12:45:57;6.70;97.90
43647;DHT22;56152;49.996;18.980;2022-11-14T12:51:01;6.70;97.90
43647;DHT22;56152;49.996;18.980;2022-11-14T12:56:15;6.60;98.00
43647;DHT22;56152;49.996;18.980;2022-11-14T13:01:35;6.70;98.00
43647;DHT22;56152;49.996;18.980;2022-11-14T13:06:47;6.50;97.90
43647;DHT22;56152;49.996;18.980;2022-11-14T13:11:54;6.30;97.90
43647;DHT22;56152;49.996;18.980;2022-11-14T13:17:25;6.30;98.00
43647;DHT22;56152;49.996;18.980;2022-11-14T13:22:45;6.20;98.20
43647;DHT22;56152;49.996;18.980;2022-11-14T13:27:49;6.30;98.30
43647;DHT22;56152;49.996;18.980;2022-11-14T13:32:56;6.30;98.20
43647;DHT22;56152;49.996;18.980;2022-11-14T13:38:20;6.30;98.20
43647;DHT22;56152;49.996;18.980;2022-11-14T13:43:37;6.40;98.20
43647;DHT22;56152;49.996;18.980;2022-11-14T13:49:00;6.40;98.10
43647;DHT22;56152;49.996;18.980;2022-11-14T13:54:11;6.30;98.10
43647;DHT22;56152;49.996;18.980;2022-11-14T13:59:40;6.10;98.10
43647;DHT22;56152;49.996;18.980;2022-11-14T14:04:56;6.00;98.20
43647;DHT22;56152;49.996;18.980;2022-11-14T14:10:07;5.80;98.20
43647;DHT22;56152;49.996;18.980;2022-11-14T14:15:24;5.70;98.30
43647;DHT22;56152;49.996;18.980;2022-11-14T14:20:35;5.60;98.30
43647;DHT22;56152;49.996;18.980;2022-11-14T14:25:50;5.50;98.40
43647;DHT22;56152;49.996;18.980;2022-11-14T14:31:09;5.40;98.40
43647;DHT22;56152;49.996;18.980;2022-11-14T14:36:23;5.40;98.40
43647;DHT22;56152;49.996;18.980;2022-11-14T14:41:31;5.20;98.40
43647;DHT22;56152;49.996;18.980;2022-11-14T14:46:35;5.20;98.50
43647;DHT22;56152;49.996;18.980;2022-11-14T14:51:36;5.10;98.50
43647;DHT22;56152;49.996;18.980;2022-11-14T14:56:38;5.20;98.60
43647;DHT22;56152;49.996;18.980;2022-11-14T15:01:44;5.10;98.60
43647;DHT22;56152;49.996;18.980;2022-11-14T15:06:49;5.20;98.70
43647;DHT22;56152;49.996;18.980;2022-11-14T15:11:53;5.20;98.70
43647;DHT22;56152;49.996;18.980;2022-11-14T15:16:58;5.10;98.60
43647;DHT22;56152;49.996;18.980;2022-11-14T15:22:03;5.20;98.60
43647;DHT22;56152;49.996;18.980;2022-11-14T15:27:11;5.10;98.50
43647;DHT22;56152;49.996;18.980;2022-11-14T15:32:21;5.10;98.60
43647;DHT22;56152;49.996;18.980;2022-11-14T15:37:24;5.20;98.60
43647;DHT22;56152;49.996;18.980;2022-11-14T15:42:27;5.20;98.60
43647;DHT22;56152;49.996;18.980;2022-11-14T15:47:37;5.30;98.60
43647;DHT22;56152;49.996;18.980;2022-11-14T15:52:44;5.30;98.60
43647;DHT22;56152;49.996;18.980;2022-11-14T15:57:48;5.30;98.50
43647;DHT22;56152;49.996;18.980;2022-11-14T16:02:53;5.30;98.60
43647;DHT22;56152;49.996;18.980;2022-11-14T16:07:57;5.20;98.40
43647;DHT22;56152;49.996;18.980;2022-11-14T16:12:59;5.20;98.50
43647;DHT22;56152;49.996;18.980;2022-11-14T16:18:04;5.10;98.50
43647;DHT22;56152;49.996;18.980;2022-11-14T16:23:08;5.10;98.50
43647;DHT22;56152;49.996;18.980;2022-11-14T16:28:14;5.10;98.60
43647;DHT22;56152;49.996;18.980;2022-11-14T16:33:21;4.90;98.50
43647;DHT22;56152;49.996;18.980;2022-11-14T16:38:28;4.90;98.60
43647;DHT22;56152;49.996;18.980;2022-11-14T16:43:31;4.90;98.60
43647;DHT22;56152;49.996;18.980;2022-11-14T16:48:36;4.80;98.60
43647;DHT22;56152;49.996;18.980;2022-11-14T16:53:38;4.80;98.60
43647;DHT22;56152;49.996;18.980;2022-11-14T16:58:43;4.80;98.70
43647;DHT22;56152;49.996;18.980;2022-11-14T17:03:48;4.80;98.70
43647;DHT22;56152;49.996;18.980;2022-11-14T17:08:52;4.80;98.80
43647;DHT22;56152;49.996;18.980;2022-11-14T17:13:57;4.80;98.80
43647;DHT22;56152;49.996;18.980;2022-11-14T17:19:02;4.90;98.80
43647;DHT22;56152;49.996;18.980;2022-11-14T17:24:04;4.80;98.70
43647;DHT22;56152;49.996;18.980;2022-11-14T17:29:06;4.90;98.80
43647;DHT22;56152;49.996;18.980;2022-11-14T17:34:10;4.90;98.80
43647;DHT22;56152;49.996;18.980;2022-11-14T17:39:12;4.80;98.70
43647;DHT22;56152;49.996;18.980;2022-11-14T17:44:17;4.80;98.80
43647;DHT22;56152;49.996;18.980;2022-11-14T17:49:20;4.80;98.80
43647;DHT22;56152;49.996;18.980;2022-11-14T17:54:22;4.70;98.80
43647;DHT22;56152;49.996;18.980;2022-11-14T17:59:25;4.70;98.80
43647;DHT22;56152;49.996;18.980;2022-11-14T18:04:31;4.70;98.90
43647;DHT22;56152;49.996;18.980;2022-11-14T18:09:33;4.70;98.80
43647;DHT22;56152;49.996;18.980;2022-11-14T18:14:36;4.70;98.90
43647;DHT22;56152;49.996;18.980;2022-11-14T18:19:41;4.60;98.90
43647;DHT22;56152;49.996;18.980;2022-11-14T18:24:43;4.60;98.90
43647;DHT22;56152;49.996;18.980;2022-11-14T18:29:46;4.50;98.90
43647;DHT22;56152;49.996;18.980;2022-11-14T18:34:53;4.50;99.00
43647;DHT22;56152;49.996;18.980;2022-11-14T18:39:57;4.50;99.10
43647;DHT22;56152;49.996;18.980;2022-11-14T18:44:59;4.50;99.10
43647;DHT22;56152;49.996;18.980;2022-11-14T18:50:03;4.50;99.40
43647;DHT22;56152;49.996;18.980;2022-11-14T18:55:06;4.40;99.00
43647;DHT22;56152;49.996;18.980;2022-11-14T19:00:14;4.40;99.10
43647;DHT22;56152;49.996;18.980;2022-11-14T19:05:18;4.40;99.20
43647;DHT22;56152;49.996;18.980;2022-11-14T19:10:21;4.40;99.20
43647;DHT22;56152;49.996;18.980;2022-11-14T19:15:23;4.40;99.20
43647;DHT22;56152;49.996;18.980;2022-11-14T19:20:27;4.40;99.30
43647;DHT22;56152;49.996;18.980;2022-11-14T19:25:30;4.50;99.30
43647;DHT22;56152;49.996;18.980;2022-11-14T19:30:34;4.60;99.30
43647;DHT22;56152;49.996;18.980;2022-11-14T19:35:39;4.60;99.20
43647;DHT22;56152;49.996;18.980;2022-11-14T19:40:41;4.70;99.20
43647;DHT22;56152;49.996;18.980;2022-11-14T19:45:42;4.80;99.20
43647;DHT22;56152;49.996;18.980;2022-11-14T19:51:02;4.80;99.10
43647;DHT22;56152;49.996;18.980;2022-11-14T19:56:06;4.80;99.00
43647;DHT22;56152;49.996;18.980;2022-11-14T20:01:09;4.80;99.00
43647;DHT22;56152;49.996;18.980;2022-11-14T20:06:16;4.80;99.00
43647;DHT22;56152;49.996;18.980;2022-11-14T20:11:19;4.70;99.00
43647;DHT22;56152;49.996;18.980;2022-11-14T20:16:23;4.60;99.00
43647;DHT22;56152;49.996;18.980;2022-11-14T20:21:30;4.60;99.10
43647;DHT22;56152;49.996;18.980;2022-11-14T20:26:33;4.50;99.10
43647;DHT22;56152;49.996;18.980;2022-11-14T20:31:35;4.50;99.10
43647;DHT22;56152;49.996;18.980;2022-11-14T20:36:40;4.50;99.20
43647;DHT22;56152;49.996;18.980;2022-11-14T20:41:44;4.50;99.20
43647;DHT22;56152;49.996;18.980;2022-11-14T20:46:47;4.50;99.20
43647;DHT22;56152;49.996;18.980;2022-11-14T20:51:52;4.50;99.20
43647;DHT22;56152;49.996;18.980;2022-11-14T20:56:59;4.40;99.20
43647;DHT22;56152;49.996;18.980;2022-11-14T21:02:05;4.40;99.20
43647;DHT22;56152;49.996;18.980;2022-11-14T21:07:08;4.40;99.20
43647;DHT22;56152;49.996;18.980;2022-11-14T21:12:10;4.40;99.20
43647;DHT22;56152;49.996;18.980;2022-11-14T21:17:13;4.40;99.30
43647;DHT22;56152;49.996;18.980;2022-11-14T21:22:18;4.40;99.30
43647;DHT22;56152;49.996;18.980;2022-11-14T21:27:19;4.30;99.20
43647;DHT22;56152;49.996;18.980;2022-11-14T21:32:22;4.30;99.20
43647;DHT22;56152;49.996;18.980;2022-11-14T21:37:26;4.30;99.20
43647;DHT22;56152;49.996;18.980;2022-11-14T21:42:28;4.20;99.30
43647;DHT22;56152;49.996;18.980;2022-11-14T21:47:35;4.30;99.30
43647;DHT22;56152;49.996;18.980;2022-11-14T21:52:41;4.20;99.30
43647;DHT22;56152;49.996;18.980;2022-11-14T21:57:55;4.20;99.30
43647;DHT22;56152;49.996;18.980;2022-11-14T22:02:59;4.10;99.30
43647;DHT22;56152;49.996;18.980;2022-11-14T22:08:20;4.10;99.40
43647;DHT22;56152;49.996;18.980;2022-11-14T22:13:24;4.00;99.30
43647;DHT22;56152;49.996;18.980;2022-11-14T22:18:27;4.00;99.30
43647;DHT22;56152;49.996;18.980;2022-11-14T22:23:34;3.90;99.40
43647;DHT22;56152;49.996;18.980;2022-11-14T22:28:39;3.90;99.30
43647;DHT22;56152;49.996;18.980;2022-11-14T22:33:42;3.90;99.40
43647;DHT22;56152;49.996;18.980;2022-11-14T22:38:51;3.90;99.40
43647;DHT22;56152;49.996;18.980;2022-11-14T22:43:54;3.90;99.50
43647;DHT22;56152;49.996;18.980;2022-11-14T22:48:56;3.90;99.40
43647;DHT22;56152;49.996;18.980;2022-11-14T22:54:00;3.90;99.50
43647;DHT22;56152;49.996;18.980;2022-11-14T22:59:02;3.90;99.40
43647;DHT22;56152;49.996;18.980;2022-11-14T23:04:04;3.90;99.40
43647;DHT22;56152;49.996;18.980;2022-11-14T23:09:09;3.90;99.50
43647;DHT22;56152;49.996;18.980;2022-11-14T23:14:15;3.90;99.40
43647;DHT22;56152;49.996;18.980;2022-11-14T23:19:17;3.90;99.50
43647;DHT22;56152;49.996;18.980;2022-11-14T23:24:29;3.90;99.50
43647;DHT22;56152;49.996;18.980;2022-11-14T23:29:33;3.90;99.50
43647;DHT22;56152;49.996;18.980;2022-11-14T23:34:36;3.90;99.50
43647;DHT22;56152;49.996;18.980;2022-11-14T23:40:16;3.90;99.50
43647;DHT22;56152;49.996;18.980;2022-11-14T23:45:18;3.90;99.50
43647;DHT22;56152;49.996;18.980;2022-11-14T23:50:21;3.80;99.50
43647;DHT22;56152;49.996;18.980;2022-11-14T23:55:25;3.90;99.50
